Time;durP1;ratioP1;P1;durP2;ratioP2;P2;SDS_P1;SDS_P2;PMS_P1;PMS_P2;Temp;Humidity;BMP_temperature;BMP_pressure;BME280_temperature;BME280_humidity;BME280_pressure;Samples;Min_cycle;Max_cycle;Signal;HPM_P1;HPM_P2
2022/07/18 00:01:57;;;;;;;4.93;2.30;;;23.60;75.30;;;;;;5106023;28;20081;-67
2022/07/18 00:04:26;;;;;;;6.13;2.58;;;23.60;75.50;;;;;;5094464;28;20031;-66
2022/07/18 00:06:52;;;;;;;5.70;3.38;;;23.60;75.50;;;;;;5094372;28;20067;-67
2022/07/18 00:09:19;;;;;;;8.23;3.97;;;23.50;75.70;;;;;;5094252;28;20024;-66
2022/07/18 00:11:45;;;;;;;6.82;3.92;;;23.50;75.80;;;;;;5092172;28;20035;-66
2022/07/18 00:14:14;;;;;;;8.52;4.45;;;23.40;75.90;;;;;;5100526;28;20038;-66
2022/07/18 00:16:39;;;;;;;11.57;5.10;;;23.40;76.10;;;;;;5107670;28;20127;-66
2022/07/18 00:19:06;;;;;;;9.93;5.18;;;23.40;77.00;;;;;;5104381;28;20116;-66
2022/07/18 00:21:32;;;;;;;8.40;4.88;;;23.40;76.50;;;;;;5098346;28;20019;-66
2022/07/18 00:23:58;;;;;;;11.30;5.20;;;23.30;76.60;;;;;;5110711;28;20028;-67
2022/07/18 00:26:24;;;;;;;9.70;4.97;;;23.30;76.50;;;;;;5099380;28;20049;-67
2022/07/18 00:28:50;;;;;;;12.50;5.90;;;23.30;76.60;;;;;;5099699;28;20101;-66
2022/07/18 00:31:15;;;;;;;10.77;5.55;;;23.20;76.50;;;;;;5110311;28;20027;-67
2022/07/18 00:33:41;;;;;;;10.57;5.38;;;23.20;76.60;;;;;;5111880;28;20460;-67
2022/07/18 00:36:07;;;;;;;13.70;5.32;;;23.20;76.50;;;;;;5098802;28;20031;-66
2022/07/18 00:38:33;;;;;;;9.02;4.97;;;23.10;76.40;;;;;;5113035;28;20058;-66
2022/07/18 00:41:03;;;;;;;11.63;5.25;;;23.10;76.30;;;;;;5111835;28;20031;-66
2022/07/18 00:43:32;;;;;;;9.98;4.90;;;23.20;76.40;;;;;;5112009;28;20050;-67
2022/07/18 00:46:00;;;;;;;10.25;5.32;;;23.10;76.30;;;;;;5111524;28;20485;-67
2022/07/18 00:48:26;;;;;;;10.65;5.32;;;23.10;76.20;;;;;;5110849;28;20039;-66
2022/07/18 00:50:52;;;;;;;10.35;5.25;;;23.00;76.10;;;;;;5112419;28;20031;-67
2022/07/18 00:53:17;;;;;;;11.05;5.03;;;23.00;76.10;;;;;;5110139;28;20023;-67
2022/07/18 00:55:46;;;;;;;10.68;4.68;;;22.90;76.10;;;;;;5110955;28;20073;-67
2022/07/18 00:58:12;;;;;;;12.20;5.72;;;22.90;76.20;;;;;;5099369;28;20077;-66
2022/07/18 01:03:24;;;;;;;12.25;5.70;;;22.90;76.50;;;;;;5104973;28;20025;-67
2022/07/18 01:05:49;;;;;;;9.63;5.28;;;22.80;76.50;;;;;;5103994;28;20039;-66
2022/07/18 01:08:15;;;;;;;14.13;5.28;;;22.80;76.60;;;;;;5092799;28;20452;-66
2022/07/18 01:10:41;;;;;;;9.88;5.53;;;22.80;76.60;;;;;;5104956;28;20106;-66
2022/07/18 01:13:07;;;;;;;8.52;5.20;;;22.70;76.60;;;;;;5099786;28;20045;-66
2022/07/18 01:15:32;;;;;;;10.50;5.07;;;22.70;76.50;;;;;;5096418;28;20125;-67
2022/07/18 01:17:58;;;;;;;14.05;5.63;;;22.70;76.60;;;;;;5099250;28;20106;-66
2022/07/18 01:20:28;;;;;;;19.08;5.97;;;22.70;76.70;;;;;;5097871;28;20525;-67
2022/07/18 01:22:54;;;;;;;12.80;5.82;;;22.70;76.80;;;;;;5111178;28;20121;-66
2022/07/18 01:25:19;;;;;;;9.63;6.05;;;22.70;76.60;;;;;;5110315;28;20071;-67
2022/07/18 01:27:45;;;;;;;11.27;5.45;;;22.60;76.70;;;;;;5099304;28;20096;-66
2022/07/18 01:30:11;;;;;;;11.23;5.72;;;22.60;76.70;;;;;;5109998;28;20395;-66
2022/07/18 01:32:39;;;;;;;11.27;5.20;;;22.60;76.70;;;;;;5095074;28;20028;-67
2022/07/18 01:35:05;;;;;;;9.68;6.10;;;22.60;76.80;;;;;;5096730;28;20035;-66
2022/07/18 01:37:31;;;;;;;10.13;5.95;;;22.50;76.80;;;;;;5095837;28;20036;-66
2022/07/18 01:39:57;;;;;;;16.25;5.35;;;22.50;76.80;;;;;;5097625;28;20039;-66
2022/07/18 01:42:22;;;;;;;15.18;5.38;;;22.50;76.80;;;;;;5107842;28;20020;-66
2022/07/18 01:44:48;;;;;;;25.27;5.38;;;22.50;76.70;;;;;;5095987;28;20396;-67
2022/07/18 01:47:14;;;;;;;10.82;4.75;;;22.50;76.70;;;;;;5115149;28;20024;-66
2022/07/18 01:49:40;;;;;;;10.93;5.43;;;22.40;76.70;;;;;;5099840;28;20101;-67
2022/07/18 01:52:07;;;;;;;14.05;5.47;;;22.40;76.70;;;;;;5095945;28;20043;-66
2022/07/18 01:54:34;;;;;;;10.10;5.40;;;22.40;76.80;;;;;;5095276;28;20475;-66
2022/07/18 01:57:03;;;;;;;11.27;6.55;;;22.40;76.90;;;;;;5103943;28;20035;-67
2022/07/18 01:59:32;;;;;;;12.80;6.90;;;22.30;77.00;;;;;;5099193;28;20054;-72
2022/07/18 02:01:58;;;;;;;13.93;6.18;;;22.30;77.10;;;;;;5096627;28;20173;-66
2022/07/18 02:04:59;;;;;;;13.20;6.45;;;22.30;77.20;;;;;;5106820;28;20032;-67
2022/07/18 02:07:09;;;;;;;10.43;6.32;;;22.20;77.10;;;;;;5096151;28;20162;-67
2022/07/18 02:09:39;;;;;;;16.40;7.22;;;22.20;77.10;;;;;;5108958;28;20114;-66
2022/07/18 02:12:04;;;;;;;14.80;6.88;;;22.20;77.30;;;;;;5094428;28;20028;-67
2022/07/18 02:14:30;;;;;;;11.73;6.28;;;22.10;77.40;;;;;;5103202;28;20038;-66
2022/07/18 02:16:56;;;;;;;11.60;7.40;;;22.10;77.40;;;;;;5112177;28;20027;-66
2022/07/18 02:19:21;;;;;;;12.20;6.68;;;22.10;77.40;;;;;;5100251;28;20062;-67
2022/07/18 02:21:47;;;;;;;12.50;6.05;;;22.10;77.40;;;;;;5110497;28;20463;-66
2022/07/18 02:24:13;;;;;;;12.43;6.75;;;22.10;77.40;;;;;;5109533;28;20032;-66
2022/07/18 02:26:38;;;;;;;12.63;6.65;;;22.10;77.40;;;;;;5105791;28;20042;-66
2022/07/18 02:29:05;;;;;;;17.08;6.80;;;22.00;77.40;;;;;;5114095;28;20044;-66
2022/07/18 02:31:31;;;;;;;12.50;6.65;;;22.00;77.40;;;;;;5113908;28;20039;-66
2022/07/18 02:33:56;;;;;;;13.02;6.82;;;22.00;77.40;;;;;;5112641;28;20058;-66
2022/07/18 02:36:22;;;;;;;13.57;6.97;;;22.00;77.70;;;;;;5115038;28;20131;-66
2022/07/18 02:38:48;;;;;;;15.65;6.78;;;21.90;77.60;;;;;;5100464;28;20022;-66
2022/07/18 02:41:13;;;;;;;14.15;6.60;;;21.90;77.60;;;;;;5114116;28;20502;-66
2022/07/18 02:43:39;;;;;;;16.85;7.18;;;21.90;77.60;;;;;;5108020;28;20136;-66
2022/07/18 02:46:05;;;;;;;12.38;6.85;;;21.90;77.60;;;;;;5105719;28;20058;-66
2022/07/18 02:48:30;;;;;;;12.27;6.88;;;21.80;77.70;;;;;;5100523;28;20113;-66
2022/07/18 02:50:56;;;;;;;16.08;7.72;;;21.80;77.80;;;;;;5107619;28;20036;-66
2022/07/18 02:53:23;;;;;;;13.88;6.75;;;21.80;78.00;;;;;;5099466;28;20020;-66
2022/07/18 02:55:52;;;;;;;11.70;6.53;;;21.80;78.00;;;;;;5094608;28;20085;-66
2022/07/18 02:58:18;;;;;;;14.48;7.47;;;21.80;78.10;;;;;;5098296;28;20082;-66
2022/07/18 03:00:44;;;;;;;11.20;6.25;;;21.80;78.10;;;;;;5095105;28;20032;-66
2022/07/18 03:03:10;;;;;;;17.55;7.20;;;21.70;78.20;;;;;;5093398;28;20015;-66
2022/07/18 03:05:35;;;;;;;11.40;6.40;;;21.70;78.20;;;;;;5093696;28;20032;-65
2022/07/18 03:08:01;;;;;;;15.27;6.63;;;21.80;78.40;;;;;;5093342;28;20456;-66
2022/07/18 03:10:27;;;;;;;11.77;6.30;;;21.70;78.40;;;;;;5096017;28;20146;-65
2022/07/18 03:12:53;;;;;;;17.95;6.85;;;21.70;78.50;;;;;;5098639;28;20114;-66
2022/07/18 03:15:18;;;;;;;11.23;6.53;;;21.70;78.60;;;;;;5094963;28;20031;-66
2022/07/18 03:17:44;;;;;;;12.95;7.07;;;21.60;78.50;;;;;;5096032;28;20025;-66
2022/07/18 03:20:10;;;;;;;18.23;7.00;;;21.60;78.60;;;;;;5096618;28;20024;-66
2022/07/18 03:22:36;;;;;;;12.85;7.30;;;21.60;78.70;;;;;;5092628;28;20365;-65
2022/07/18 03:25:02;;;;;;;12.23;6.55;;;21.60;78.80;;;;;;5095026;28;20031;-66
2022/07/18 03:27:28;;;;;;;16.52;7.57;;;21.60;79.00;;;;;;5095643;28;20117;-66
2022/07/18 03:29:53;;;;;;;13.80;6.93;;;21.50;79.00;;;;;;5094254;28;20459;-66
2022/07/18 03:32:19;;;;;;;15.57;7.22;;;21.50;79.00;;;;;;5096443;28;20035;-66
2022/07/18 03:34:45;;;;;;;12.68;6.15;;;21.50;78.90;;;;;;5093858;28;20032;-66
2022/07/18 03:37:10;;;;;;;15.80;6.55;;;21.50;78.90;;;;;;5096940;28;20102;-66
2022/07/18 03:39:39;;;;;;;12.55;6.35;;;21.50;79.00;;;;;;5093939;28;20028;-66
2022/07/18 03:42:05;;;;;;;13.90;6.47;;;21.50;78.90;;;;;;5092849;28;20032;-66
2022/07/18 03:44:30;;;;;;;12.77;6.60;;;21.40;78.80;;;;;;5095006;28;20039;-66
2022/07/18 03:46:56;;;;;;;13.02;6.30;;;21.50;78.80;;;;;;5096386;28;20056;-66
2022/07/18 03:49:22;;;;;;;14.40;6.72;;;21.40;78.60;;;;;;5092751;28;20356;-67
2022/07/18 03:51:47;;;;;;;12.35;6.82;;;21.40;78.60;;;;;;5094042;28;20024;-66
2022/07/18 03:54:13;;;;;;;18.77;6.30;;;21.40;78.50;;;;;;5095565;28;20464;-66
2022/07/18 03:56:48;;;;;;;15.80;6.38;;;21.30;78.40;;;;;;5094098;28;20038;-66
2022/07/18 03:59:14;;;;;;;14.50;6.78;;;21.30;78.40;;;;;;5095140;28;20113;-67
2022/07/18 04:01:39;;;;;;;13.43;6.75;;;21.30;78.40;;;;;;5095761;28;20105;-66
2022/07/18 04:04:05;;;;;;;19.67;7.20;;;21.20;78.40;;;;;;5106012;28;20034;-66
2022/07/18 04:06:33;;;;;;;9.77;5.82;;;21.30;78.50;;;;;;5092415;28;20483;-66
2022/07/18 04:08:59;;;;;;;12.80;5.78;;;21.30;78.70;;;;;;5104581;28;20069;-66
2022/07/18 04:11:31;;;;;;;10.68;5.88;;;21.20;78.70;;;;;;5109577;28;20765;-66
2022/07/18 04:13:57;;;;;;;12.80;5.60;;;21.20;78.80;;;;;;5105772;28;20032;-66
2022/07/18 04:16:23;;;;;;;16.20;7.30;;;21.20;78.80;;;;;;5096328;28;20028;-66
2022/07/18 04:18:49;;;;;;;13.00;6.35;;;21.20;78.80;;;;;;5108522;28;20024;-66
2022/07/18 04:21:16;;;;;;;17.52;5.88;;;21.20;79.10;;;;;;5095807;28;20050;-66
2022/07/18 04:23:42;;;;;;;11.55;6.72;;;21.20;79.20;;;;;;5096903;28;20035;-66
2022/07/18 04:26:08;;;;;;;11.30;6.13;;;21.20;79.30;;;;;;5094590;28;20040;-66
2022/07/18 04:28:34;;;;;;;10.45;5.80;;;21.10;79.20;;;;;;5093878;28;20085;-66
2022/07/18 04:31:01;;;;;;;11.20;5.47;;;21.10;79.40;;;;;;5095088;28;20039;-66
2022/07/18 04:33:26;;;;;;;12.25;6.10;;;21.10;79.40;;;;;;5091271;28;20032;-66
2022/07/18 04:35:52;;;;;;;10.60;5.68;;;21.10;79.30;;;;;;5092851;28;20036;-65
2022/07/18 04:38:18;;;;;;;12.40;6.20;;;21.10;79.30;;;;;;5095538;28;20027;-66
2022/07/18 04:40:44;;;;;;;10.48;5.72;;;21.20;79.50;;;;;;5091862;28;20056;-65
2022/07/18 04:43:10;;;;;;;12.18;5.30;;;21.10;79.50;;;;;;5093136;28;20020;-66
2022/07/18 04:45:36;;;;;;;14.73;5.38;;;21.10;79.60;;;;;;5096979;28;20051;-66
2022/07/18 04:48:04;;;;;;;9.48;5.38;;;21.10;79.60;;;;;;5091813;28;20028;-66
2022/07/18 04:50:30;;;;;;;12.30;5.88;;;21.10;79.60;;;;;;5097222;28;20039;-66
2022/07/18 04:52:57;;;;;;;14.55;5.70;;;21.10;80.10;;;;;;5105147;28;20032;-66
2022/07/18 04:55:24;;;;;;;7.50;4.57;;;21.10;79.50;;;;;;5091985;28;20429;-66
2022/07/18 04:57:51;;;;;;;9.70;5.25;;;21.10;79.70;;;;;;5109190;28;20020;-66
2022/07/18 05:00:20;;;;;;;8.80;4.85;;;21.10;79.50;;;;;;5096248;28;20141;-66
2022/07/18 05:02:51;;;;;;;9.43;4.43;;;21.10;79.40;;;;;;5094478;28;20038;-66
2022/07/18 05:05:21;;;;;;;13.02;5.00;;;21.10;79.50;;;;;;5101228;28;20127;-66
2022/07/18 05:07:48;;;;;;;10.73;4.85;;;21.10;79.40;;;;;;5112784;28;20024;-66
2022/07/18 05:10:16;;;;;;;13.32;4.85;;;21.10;79.50;;;;;;5116658;28;20027;-66
2022/07/18 05:12:44;;;;;;;11.65;5.25;;;21.10;79.40;;;;;;5109082;28;20036;-66
2022/07/18 05:15:12;;;;;;;7.32;4.72;;;21.10;79.40;;;;;;5095996;28;20047;-66
2022/07/18 05:17:39;;;;;;;11.63;5.05;;;21.10;79.40;;;;;;5116365;28;20074;-66
2022/07/18 05:20:07;;;;;;;10.20;5.18;;;21.10;79.50;;;;;;5102862;28;20032;-66
2022/07/18 05:22:34;;;;;;;10.27;4.97;;;21.20;79.50;;;;;;5107635;28;20028;-66
2022/07/18 05:25:00;;;;;;;14.13;4.32;;;21.10;79.40;;;;;;5107188;28;20478;-66
2022/07/18 05:27:26;;;;;;;9.40;5.03;;;21.20;79.50;;;;;;5115366;28;20059;-66
2022/07/18 05:29:52;;;;;;;8.40;4.72;;;21.10;79.30;;;;;;5103929;28;20492;-66
2022/07/18 05:32:18;;;;;;;12.23;5.53;;;21.20;79.30;;;;;;5111981;28;20487;-66
2022/07/18 05:34:44;;;;;;;12.40;4.63;;;21.10;79.20;;;;;;5116467;28;20137;-66
2022/07/18 05:37:09;;;;;;;9.55;4.68;;;21.20;79.20;;;;;;5097343;28;20081;-66
2022/07/18 05:39:38;;;;;;;9.50;4.55;;;21.10;79.10;;;;;;5095933;28;20056;-66
2022/07/18 05:42:04;;;;;;;11.00;4.70;;;21.20;79.20;;;;;;5100097;28;20112;-66
2022/07/18 05:44:30;;;;;;;10.40;4.40;;;21.20;79.20;;;;;;5114126;28;20502;-66
2022/07/18 05:46:56;;;;;;;12.38;4.63;;;21.20;79.10;;;;;;5101515;28;20035;-66
2022/07/18 05:49:21;;;;;;;15.07;4.80;;;21.20;79.10;;;;;;5103587;28;20114;-66
2022/07/18 05:51:47;;;;;;;10.52;5.82;;;21.20;79.10;;;;;;5095375;28;20024;-66
2022/07/18 05:54:18;;;;;;;13.13;4.82;;;21.20;79.50;;;;;;5107010;28;20111;-66
2022/07/18 05:56:51;;;;;;;14.68;4.93;;;21.20;78.90;;;;;;5095399;28;20028;-66
2022/07/18 05:59:18;;;;;;;8.23;4.10;;;21.20;78.90;;;;;;5108283;28;20031;-66
2022/07/18 06:01:44;;;;;;;12.35;4.32;;;21.20;78.90;;;;;;5104024;28;20538;-67
2022/07/18 06:04:10;;;;;;;9.45;3.92;;;21.30;79.10;;;;;;5099813;28;20040;-68
2022/07/18 06:06:35;;;;;;;9.27;4.05;;;21.20;79.10;;;;;;5095538;28;20040;-68
2022/07/18 06:09:02;;;;;;;7.97;4.03;;;21.30;79.00;;;;;;5093464;28;20020;-68
2022/07/18 06:11:27;;;;;;;9.50;4.10;;;21.30;79.20;;;;;;5094007;28;20036;-68
2022/07/18 06:13:53;;;;;;;9.20;3.50;;;21.30;79.00;;;;;;5098711;28;20032;-68
2022/07/18 06:16:19;;;;;;;10.00;3.72;;;21.30;79.00;;;;;;5095671;28;20028;-68
2022/07/18 06:18:44;;;;;;;9.02;3.83;;;21.30;78.80;;;;;;5091924;28;20111;-68
2022/07/18 06:21:10;;;;;;;9.15;3.83;;;21.30;78.90;;;;;;5095325;28;20168;-68
2022/07/18 06:23:36;;;;;;;11.10;3.63;;;21.30;78.70;;;;;;5093683;28;20055;-67
2022/07/18 06:26:02;;;;;;;6.65;3.40;;;21.40;78.80;;;;;;5095868;28;20127;-67
2022/07/18 06:28:28;;;;;;;9.45;3.40;;;21.40;79.00;;;;;;5093309;28;20032;-67
2022/07/18 06:30:54;;;;;;;7.78;3.40;;;21.40;78.90;;;;;;5095007;28;20035;-67
2022/07/18 06:33:23;;;;;;;8.13;3.42;;;21.40;78.60;;;;;;5100549;28;20368;-67
2022/07/18 06:35:49;;;;;;;8.93;3.67;;;21.40;78.20;;;;;;5094326;28;20043;-68
2022/07/18 06:38:16;;;;;;;10.13;3.60;;;21.40;78.00;;;;;;5092843;28;20058;-68
2022/07/18 06:40:42;;;;;;;8.52;3.47;;;21.40;77.90;;;;;;5093081;28;20593;-67
2022/07/18 06:43:08;;;;;;;10.88;3.80;;;21.40;78.10;;;;;;5108802;28;20023;-68
2022/07/18 06:45:34;;;;;;;6.15;3.10;;;21.40;77.70;;;;;;5111770;28;20047;-68
2022/07/18 06:48:00;;;;;;;6.22;2.92;;;21.50;77.90;;;;;;5109779;28;20088;-67
2022/07/18 06:50:25;;;;;;;11.27;3.72;;;21.50;77.40;;;;;;5109148;28;20041;-68
2022/07/18 06:52:51;;;;;;;9.45;3.10;;;21.60;77.10;;;;;;5111897;28;20023;-68
2022/07/18 06:55:20;;;;;;;9.30;2.55;;;21.60;76.90;;;;;;5109335;28;21331;-68
2022/07/18 06:57:46;;;;;;;8.07;2.75;;;21.60;76.40;;;;;;5107856;28;20030;-67
2022/07/18 07:00:14;;;;;;;7.10;2.28;;;21.60;75.90;;;;;;5106380;28;20046;-68
2022/07/18 07:02:41;;;;;;;6.75;2.63;;;21.60;76.20;;;;;;5107973;28;20079;-68
2022/07/18 07:05:08;;;;;;;5.07;2.55;;;21.60;75.90;;;;;;5109360;28;20039;-68
2022/07/18 07:07:33;;;;;;;4.95;2.28;;;21.60;76.10;;;;;;5108655;28;20424;-67
2022/07/18 07:09:59;;;;;;;5.05;2.40;;;21.70;76.00;;;;;;5108769;28;20055;-67
2022/07/18 07:12:25;;;;;;;7.15;2.33;;;21.60;75.80;;;;;;5099984;28;20387;-67
2022/07/18 07:14:50;;;;;;;13.85;2.53;;;21.60;75.80;;;;;;5107849;28;20375;-67
2022/07/18 07:17:16;;;;;;;4.45;2.13;;;21.70;75.80;;;;;;5097029;28;20028;-67
2022/07/18 07:19:42;;;;;;;5.05;2.30;;;21.70;75.60;;;;;;5094162;28;20039;-67
2022/07/18 07:22:07;;;;;;;5.28;1.83;;;21.70;75.50;;;;;;5106448;28;20031;-68
2022/07/18 07:24:33;;;;;;;6.53;2.08;;;21.80;75.60;;;;;;5100646;28;20383;-67
2022/07/18 07:27:00;;;;;;;7.25;2.05;;;21.80;75.50;;;;;;5112559;28;20047;-66
2022/07/18 07:29:25;;;;;;;2.88;1.65;;;21.90;75.00;;;;;;5092866;28;20024;-65
2022/07/18 07:31:51;;;;;;;5.03;1.83;;;21.90;74.60;;;;;;5093789;28;20448;-66
2022/07/18 07:34:17;;;;;;;3.55;2.15;;;21.90;74.50;;;;;;5093061;28;20035;-65
2022/07/18 07:36:42;;;;;;;4.93;1.92;;;22.00;74.40;;;;;;5100343;28;20024;-66
2022/07/18 07:39:09;;;;;;;7.38;1.95;;;22.00;74.40;;;;;;5099639;28;20045;-66
2022/07/18 07:41:35;;;;;;;10.45;1.77;;;22.00;75.10;;;;;;5097813;28;20467;-66
2022/07/18 07:44:01;;;;;;;4.47;2.00;;;22.10;74.50;;;;;;5096541;28;20115;-66
2022/07/18 07:46:27;;;;;;;2.63;1.58;;;22.10;74.20;;;;;;5099395;28;20514;-66
2022/07/18 07:48:53;;;;;;;7.00;1.95;;;22.20;74.00;;;;;;5108879;28;20097;-66
2022/07/18 07:51:18;;;;;;;3.80;1.63;;;22.20;73.80;;;;;;5103538;28;20044;-68
2022/07/18 07:53:44;;;;;;;7.10;1.90;;;22.30;73.80;;;;;;5094078;28;20040;-70
2022/07/18 07:56:10;;;;;;;3.25;1.67;;;22.30;73.90;;;;;;5100810;28;20065;-69
2022/07/18 07:58:36;;;;;;;3.20;1.77;;;22.30;73.80;;;;;;5107001;28;20031;-68
2022/07/18 08:01:02;;;;;;;3.40;1.73;;;22.40;73.80;;;;;;5097298;28;20085;-68
2022/07/18 08:03:28;;;;;;;3.83;1.52;;;22.50;73.60;;;;;;5094494;28;20024;-68
2022/07/18 08:05:53;;;;;;;3.05;1.55;;;22.50;74.00;;;;;;5094888;28;20068;-68
2022/07/18 08:08:19;;;;;;;9.68;1.90;;;22.60;73.20;;;;;;5112862;28;20023;-69
2022/07/18 08:10:47;;;;;;;4.50;1.60;;;22.60;73.20;;;;;;5096900;28;20032;-68
2022/07/18 08:13:13;;;;;;;2.15;1.52;;;22.70;72.80;;;;;;5092925;28;20039;-69
2022/07/18 08:15:39;;;;;;;3.03;1.67;;;22.70;73.30;;;;;;5094898;28;20035;-68
2022/07/18 08:18:05;;;;;;;6.93;2.00;;;22.70;72.90;;;;;;5101577;28;20024;-68
2022/07/18 08:20:33;;;;;;;5.10;1.73;;;22.70;73.10;;;;;;5093242;28;20523;-68
2022/07/18 08:23:05;;;;;;;9.20;1.80;;;22.70;73.70;;;;;;5091626;28;20039;-68
2022/07/18 08:25:32;;;;;;;4.97;1.75;;;22.80;73.50;;;;;;5104440;28;20039;-69
2022/07/18 08:27:59;;;;;;;5.32;1.60;;;22.80;73.60;;;;;;5093146;28;20027;-69
2022/07/18 08:30:26;;;;;;;7.60;1.42;;;22.90;73.90;;;;;;5092132;28;20154;-69
2022/07/18 08:32:52;;;;;;;7.65;2.15;;;22.90;73.50;;;;;;5101467;28;20032;-69
2022/07/18 08:35:18;;;;;;;7.68;1.80;;;23.00;73.40;;;;;;5107442;28;20031;-69
2022/07/18 08:37:44;;;;;;;3.00;1.40;;;23.00;73.60;;;;;;5096070;28;20100;-70
2022/07/18 08:40:12;;;;;;;9.77;1.92;;;23.10;73.30;;;;;;5098349;28;20372;-68
2022/07/18 08:42:38;;;;;;;5.72;1.88;;;23.10;73.10;;;;;;5098949;28;20032;-68
2022/07/18 08:45:05;;;;;;;12.23;1.70;;;23.20;73.20;;;;;;5091341;28;20456;-68
2022/07/18 08:47:32;;;;;;;4.25;1.38;;;23.20;73.10;;;;;;5092034;28;20077;-66
2022/07/18 08:50:01;;;;;;;4.97;1.67;;;23.20;73.10;;;;;;5094595;28;20119;-67
2022/07/18 08:52:28;;;;;;;9.40;1.80;;;23.30;73.20;;;;;;5093301;28;20055;-67
2022/07/18 08:54:55;;;;;;;3.67;1.55;;;23.30;72.80;;;;;;5104614;28;20028;-67
2022/07/18 08:57:23;;;;;;;6.15;1.90;;;23.40;73.10;;;;;;5092173;28;20117;-67
2022/07/18 08:59:50;;;;;;;3.42;1.55;;;23.40;73.50;;;;;;5092088;28;20052;-67
2022/07/18 09:02:16;;;;;;;5.72;1.50;;;23.50;73.50;;;;;;5104570;28;20386;-68
2022/07/18 09:04:44;;;;;;;3.78;1.45;;;23.50;73.60;;;;;;5103501;28;20038;-68
2022/07/18 09:07:22;;;;;;;7.45;1.30;;;23.50;73.40;;;;;;5091995;28;20032;-68
2022/07/18 09:09:59;;;;;;;6.75;1.58;;;23.50;73.20;;;;;;5100080;28;20497;-68
2022/07/18 09:12:31;;;;;;;4.82;1.83;;;23.50;73.30;;;;;;5095545;28;20064;-68
2022/07/18 09:15:03;;;;;;;4.32;1.80;;;23.60;73.70;;;;;;5101566;28;20039;-68
2022/07/18 09:17:29;;;;;;;6.43;1.80;;;23.60;73.50;;;;;;5093397;28;20159;-67
2022/07/18 09:20:17;;;;;;;6.80;1.60;;;23.70;73.60;;;;;;5100951;28;20114;-68
2022/07/18 09:22:44;;;;;;;4.18;1.50;;;23.80;73.40;;;;;;5095216;28;20047;-68
2022/07/18 09:25:21;;;;;;;6.32;1.70;;;23.90;73.80;;;;;;5092119;28;20043;-68
2022/07/18 09:27:52;;;;;;;6.97;1.70;;;24.00;73.80;;;;;;5091809;28;20119;-68
2022/07/18 09:30:28;;;;;;;2.33;1.38;;;24.00;73.20;;;;;;5093273;28;20024;-68
2022/07/18 09:33:03;;;;;;;4.25;1.45;;;24.00;73.80;;;;;;5093457;28;20039;-68
2022/07/18 09:35:33;;;;;;;8.48;1.98;;;24.00;73.60;;;;;;5095701;28;20107;-68
2022/07/18 09:38:07;;;;;;;7.93;1.50;;;24.00;73.90;;;;;;5101655;28;20030;-68
2022/07/18 09:40:36;;;;;;;1.80;1.02;;;24.10;73.60;;;;;;5097497;28;20036;-70
2022/07/18 09:43:08;;;;;;;2.83;1.42;;;24.20;72.50;;;;;;5109613;28;20184;-68
2022/07/18 09:45:39;;;;;;;3.65;1.77;;;24.10;72.10;;;;;;5108019;28;20047;-68
2022/07/18 09:48:07;;;;;;;3.72;1.40;;;24.20;72.20;;;;;;5103903;28;20092;-68
2022/07/18 09:50:58;;;;;;;2.83;1.30;;;24.20;71.90;;;;;;5103390;28;20508;-68
2022/07/18 09:53:55;;;;;;;8.60;1.45;;;24.20;72.10;;;;;;5108884;28;20027;-68
2022/07/18 09:56:25;;;;;;;4.15;1.77;;;24.30;71.90;;;;;;5079567;28;20047;-68
2022/07/18 09:58:54;;;;;;;4.88;1.58;;;24.30;71.70;;;;;;5115387;28;20391;-68
2022/07/18 10:01:21;;;;;;;6.40;2.58;;;24.30;71.90;;;;;;5108906;28;20364;-69
2022/07/18 10:03:50;;;;;;;4.30;1.52;;;24.40;71.20;;;;;;5099876;28;20036;-68
2022/07/18 10:06:18;;;;;;;7.63;1.45;;;24.40;71.40;;;;;;5099583;28;20031;-68
2022/07/18 10:08:44;;;;;;;3.47;1.83;;;24.50;71.80;;;;;;5094425;28;20028;-68
2022/07/18 10:11:10;;;;;;;8.40;1.83;;;24.50;71.40;;;;;;5101665;28;20031;-68
2022/07/18 10:13:39;;;;;;;5.82;1.80;;;24.60;70.40;;;;;;5094675;28;20028;-68
2022/07/18 10:16:05;;;;;;;3.92;1.48;;;24.60;70.60;;;;;;5099259;28;20110;-68
2022/07/18 10:18:34;;;;;;;5.90;1.40;;;24.60;71.20;;;;;;5101653;28;20821;-68
2022/07/18 10:21:08;;;;;;;4.70;2.28;;;24.70;70.90;;;;;;5104447;28;20544;-70
2022/07/18 10:23:37;;;;;;;7.22;1.75;;;24.80;70.60;;;;;;5101856;28;20027;-69
2022/07/18 10:26:07;;;;;;;5.00;1.92;;;24.80;71.30;;;;;;5104372;28;20036;-69
2022/07/18 10:28:33;;;;;;;4.30;1.50;;;24.90;70.90;;;;;;5111722;28;20056;-68
2022/07/18 10:31:16;;;;;;;3.22;1.67;;;24.90;70.90;;;;;;5113051;28;20110;-68
2022/07/18 10:33:49;;;;;;;3.03;1.23;;;25.00;70.70;;;;;;5107763;28;20102;-69
2022/07/18 10:36:25;;;;;;;6.18;1.20;;;25.00;70.90;;;;;;5108868;28;20031;-69
2022/07/18 10:39:09;;;;;;;7.60;2.22;;;25.10;71.00;;;;;;5109748;28;20027;-68
2022/07/18 10:41:47;;;;;;;6.22;1.52;;;25.10;69.40;;;;;;5107629;28;20084;-68
2022/07/18 10:44:31;;;;;;;1.98;1.25;;;25.20;70.50;;;;;;5111519;28;20048;-71
2022/07/18 10:47:02;;;;;;;3.08;1.27;;;25.20;71.00;;;;;;5110610;28;20368;-68
2022/07/18 10:49:49;;;;;;;3.80;1.85;;;25.30;70.00;;;;;;5108009;28;20079;-68
2022/07/18 10:52:33;;;;;;;4.32;1.55;;;25.30;69.50;;;;;;5100020;28;20089;-68
2022/07/18 10:55:05;;;;;;;5.05;1.77;;;25.40;70.20;;;;;;5095498;28;20039;-67
2022/07/18 10:57:32;;;;;;;3.42;1.73;;;25.40;68.60;;;;;;5097497;28;20028;-68
2022/07/18 11:00:11;;;;;;;8.80;2.00;;;25.50;68.90;;;;;;5094279;28;20024;-68
2022/07/18 11:02:38;;;;;;;8.88;2.10;;;25.50;68.10;;;;;;5094368;28;20119;-67
2022/07/18 11:05:23;;;;;;;2.55;1.17;;;25.60;68.20;;;;;;5093710;28;20036;-67
2022/07/18 11:07:58;;;;;;;4.97;1.70;;;25.70;69.50;;;;;;5091947;28;20495;-67
2022/07/18 11:10:42;;;;;;;4.13;1.92;;;25.80;68.30;;;;;;5093610;28;20055;-67
2022/07/18 11:13:30;;;;;;;4.25;1.73;;;25.80;68.00;;;;;;5093145;28;20471;-67
2022/07/18 11:15:59;;;;;;;5.68;1.88;;;25.80;67.60;;;;;;5094889;28;20024;-68
2022/07/18 11:18:30;;;;;;;4.30;1.83;;;25.90;67.90;;;;;;5096598;28;20074;-67
2022/07/18 11:20:56;;;;;;;2.92;1.92;;;26.00;67.80;;;;;;5093692;28;20020;-69
2022/07/18 11:23:27;;;;;;;4.22;1.88;;;26.00;67.50;;;;;;5093001;28;20032;-66
2022/07/18 11:25:56;;;;;;;7.60;2.50;;;26.10;68.10;;;;;;5100235;28;20080;-68
2022/07/18 11:28:26;;;;;;;6.47;2.28;;;26.20;67.40;;;;;;5097850;28;20052;-69
2022/07/18 11:31:11;;;;;;;6.93;2.67;;;26.20;67.00;;;;;;5103571;28;20039;-72
2022/07/18 11:33:40;;;;;;;4.03;2.10;;;26.30;67.60;;;;;;5094626;28;20487;-70
2022/07/18 11:36:08;;;;;;;5.00;2.00;;;26.30;67.20;;;;;;5099278;28;20127;-67
2022/07/18 11:38:51;;;;;;;4.50;2.15;;;26.50;67.60;;;;;;5094413;28;20063;-70
2022/07/18 11:41:18;;;;;;;6.07;2.10;;;26.50;66.20;;;;;;5091633;28;20093;-69
2022/07/18 11:43:45;;;;;;;5.55;2.42;;;26.50;66.90;;;;;;5091080;28;20066;-68
2022/07/18 11:46:13;;;;;;;5.80;2.25;;;26.60;67.60;;;;;;5091049;28;20051;-69
2022/07/18 11:48:40;;;;;;;6.13;2.50;;;26.60;65.60;;;;;;5091959;28;20024;-68
2022/07/18 11:51:16;;;;;;;3.95;2.03;;;26.70;66.10;;;;;;5094184;28;20035;-70
2022/07/18 11:53:52;;;;;;;7.00;1.77;;;26.80;65.70;;;;;;5092129;28;20068;-67
2022/07/18 11:56:19;;;;;;;4.93;2.30;;;26.80;66.10;;;;;;5093923;28;20115;-68
2022/07/18 11:58:47;;;;;;;5.45;2.45;;;26.90;64.40;;;;;;5094869;28;20028;-67
2022/07/18 12:01:13;;;;;;;4.10;2.30;;;26.90;64.50;;;;;;5093647;28;20032;-66
2022/07/18 12:03:46;;;;;;;5.80;2.78;;;27.00;63.80;;;;;;5092042;28;20032;-67
2022/07/18 12:06:19;;;;;;;3.97;1.38;;;27.10;64.30;;;;;;5091826;28;20028;-67
2022/07/18 12:08:46;;;;;;;8.48;2.13;;;27.10;65.90;;;;;;5092978;28;20096;-68
2022/07/18 12:11:17;;;;;;;6.43;2.40;;;27.20;64.70;;;;;;5094515;28;20059;-68
2022/07/18 12:13:54;;;;;;;8.02;2.80;;;27.20;63.80;;;;;;5094404;28;20425;-68
2022/07/18 12:16:31;;;;;;;5.30;2.22;;;27.30;63.00;;;;;;5093397;28;20043;-67
2022/07/18 12:19:01;;;;;;;7.85;2.78;;;27.30;62.30;;;;;;5090114;28;20403;-68
2022/07/18 12:21:49;;;;;;;4.28;1.95;;;27.40;62.90;;;;;;5094254;28;20036;-68
2022/07/18 12:24:28;;;;;;;5.05;2.53;;;27.50;64.50;;;;;;5092149;28;20028;-69
2022/07/18 12:27:23;;;;;;;7.80;2.88;;;27.50;63.00;;;;;;5092325;28;20067;-70
2022/07/18 12:30:11;;;;;;;4.43;2.63;;;27.60;63.00;;;;;;5099290;28;20027;-66
2022/07/18 12:32:38;;;;;;;10.30;3.25;;;27.60;63.70;;;;;;5092999;28;21642;-67
2022/07/18 12:35:11;;;;;;;6.63;2.58;;;27.70;62.20;;;;;;5096746;28;20038;-67
2022/07/18 12:37:37;;;;;;;7.75;2.72;;;27.80;63.00;;;;;;5095304;28;20031;-68
2022/07/18 12:40:07;;;;;;;6.43;2.67;;;27.80;63.20;;;;;;5099039;28;20055;-68
2022/07/18 12:42:41;;;;;;;5.47;3.17;;;27.80;62.80;;;;;;5104000;28;20391;-68
2022/07/18 12:45:11;;;;;;;6.55;3.63;;;27.90;61.10;;;;;;5105982;28;20043;-68
2022/07/18 12:47:37;;;;;;;7.25;2.92;;;27.90;59.80;;;;;;5106281;28;20028;-68
2022/07/18 12:50:05;;;;;;;3.80;2.13;;;28.00;61.20;;;;;;5092004;28;20047;-68
2022/07/18 12:52:31;;;;;;;6.40;2.58;;;28.10;62.50;;;;;;5095083;28;20035;-69